Main page
Satellite images 15-day forecastsClimateMarine weather Cyclones Lightning AirportsFAQ Newsletter About
Weather : Europe Africa North America South America Asia Australia-Oceania Others
Languages Contact

Maputo, Mozambique

Mavalane

latitude: 25-55S, longitude: 032-34E, elevation: 39 m


METAR: FQMA 310800Z 24009KT 9999 BKN020 24/19 Q1019 NOSIG
TAF: FQMA 310400Z 3106/0112 19010KT 9999 BKN025 BECMG 3112/3114 14012KT BKN020 BECMG 3118/3120 22014KT TX26/3112ZTN21/0102Z

Time: 10:15 (08:15 UTC)

Current weather observation

The report was made 15 minutes ago, at 08:00 UTC
Wind 9 kt from the West/Southwest
Temperature 24°C
Humidity 74%
Pressure 1019 hPa
Visibility 10 km or more
Broken clouds at a height of 2000 ft

Change units

Forecast

The report was made 4 hours and 15 minutes ago, at 04:00 UTC
Forecast valid from 31 at 06 UTC to 01 at 12 UTC
Wind 10 kt from the South
Visibility 10 km or more
Broken clouds at a height of 2500 ft
Becoming
from 31 at 12 UTC to 31 at 14 UTC
Wind 12 kt from the Southeast
Broken clouds at a height of 2000 ft
Becoming
from 31 at 18 UTC to 31 at 20 UTC
Wind 14 kt from the Southwest
The information on this site is subject to a disclaimer
Weather : Europe Africa North America South America Asia Australia-Oceania Others
Satellite images 15-day forecastsClimateMarine weather Cyclones Lightning AirportsFAQ Languages Contact Newsletter About